Weather at Gossen Airfield

Public forecast

Using degrees Celsius for public forecast. Weather courtesy of forecast.io.

Closest aviation weather report (METAR) to Gossen Airfield

Closest report is Molde Airport, Årø, 13.1 nm (24.2 km) ESE.

2024/05/30 02:50 (retrieved 21 minutes ago)

ENML 300250Z AUTO 34007KT 9999NDV BKN023/// 12/09 Q1009

Closest aviation forecast (TAF) to Gossen Airfield

Forecast is more than 12 hours old.

Closest forecast is Quaqtaq Airport, 2,033.7 nm (3,766.4 km) WNW.

2024/05/29 14:00 (retrieved 13 hours ago)

TAF CYHA 291340Z 2914/2921 28007KT P6SM BKN030 TEMPO 2914/2918 BKN020 BECMG 2916/2918 18008KT RMK NXT FCST BY 301400Z